sensor_id;sensor_type;location;lat;lon;timestamp;temperature;humidity
1155;DHT22;566;48.414;9.118;2023-04-01T00:00:55;7.30;98.00
1155;DHT22;566;48.414;9.118;2023-04-01T00:03:22;7.40;98.00
1155;DHT22;566;48.414;9.118;2023-04-01T00:05:48;7.40;97.60
1155;DHT22;566;48.414;9.118;2023-04-01T00:08:15;7.30;97.80
1155;DHT22;566;48.414;9.118;2023-04-01T00:10:40;7.20;97.60
1155;DHT22;566;48.414;9.118;2023-04-01T00:13:06;7.10;97.20
1155;DHT22;566;48.414;9.118;2023-04-01T00:15:33;7.10;97.80
1155;DHT22;566;48.414;9.118;2023-04-01T00:17:58;7.20;98.00
1155;DHT22;566;48.414;9.118;2023-04-01T00:20:24;7.30;98.00
1155;DHT22;566;48.414;9.118;2023-04-01T00:22:53;7.40;98.00
1155;DHT22;566;48.414;9.118;2023-04-01T00:25:18;7.50;97.90
1155;DHT22;566;48.414;9.118;2023-04-01T00:27:44;7.40;97.80
1155;DHT22;566;48.414;9.118;2023-04-01T00:30:11;7.40;97.80
1155;DHT22;566;48.414;9.118;2023-04-01T00:32:37;7.30;97.80
1155;DHT22;566;48.414;9.118;2023-04-01T00:35:03;7.30;97.40
1155;DHT22;566;48.414;9.118;2023-04-01T00:37:28;7.20;97.30
1155;DHT22;566;48.414;9.118;2023-04-01T00:39:54;7.10;97.30
1155;DHT22;566;48.414;9.118;2023-04-01T00:42:20;7.10;96.70
1155;DHT22;566;48.414;9.118;2023-04-01T00:44:51;7.10;96.60
1155;DHT22;566;48.414;9.118;2023-04-01T00:47:17;7.00;97.00
1155;DHT22;566;48.414;9.118;2023-04-01T00:49:46;7.00;96.60
1155;DHT22;566;48.414;9.118;2023-04-01T00:52:15;6.90;96.70
1155;DHT22;566;48.414;9.118;2023-04-01T00:54:46;6.90;97.40
1155;DHT22;566;48.414;9.118;2023-04-01T00:57:21;7.10;97.80
1155;DHT22;566;48.414;9.118;2023-04-01T00:59:51;7.20;98.00
1155;DHT22;566;48.414;9.118;2023-04-01T01:02:18;7.20;97.80
1155;DHT22;566;48.414;9.118;2023-04-01T01:04:44;7.10;97.80
1155;DHT22;566;48.414;9.118;2023-04-01T01:07:34;7.10;98.00
1155;DHT22;566;48.414;9.118;2023-04-01T01:16:04;7.10;97.80
1155;DHT22;566;48.414;9.118;2023-04-01T01:21:16;7.00;97.60
1155;DHT22;566;48.414;9.118;2023-04-01T01:36:56;6.80;97.90
1155;DHT22;566;48.414;9.118;2023-04-01T01:39:27;6.80;98.00
1155;DHT22;566;48.414;9.118;2023-04-01T01:41:57;6.80;98.00
1155;DHT22;566;48.414;9.118;2023-04-01T01:44:25;6.90;98.00
1155;DHT22;566;48.414;9.118;2023-04-01T01:46:52;6.90;98.00
1155;DHT22;566;48.414;9.118;2023-04-01T01:49:19;7.10;98.00
1155;DHT22;566;48.414;9.118;2023-04-01T01:51:45;7.10;97.80
1155;DHT22;566;48.414;9.118;2023-04-01T01:54:16;7.00;97.80
1155;DHT22;566;48.414;9.118;2023-04-01T01:56:45;7.00;97.90
1155;DHT22;566;48.414;9.118;2023-04-01T01:59:14;6.90;98.00
1155;DHT22;566;48.414;9.118;2023-04-01T02:01:45;6.80;97.90
1155;DHT22;566;48.414;9.118;2023-04-01T02:04:13;6.80;97.90
1155;DHT22;566;48.414;9.118;2023-04-01T02:06:45;6.80;97.90
1155;DHT22;566;48.414;9.118;2023-04-01T02:09:12;6.70;97.70
1155;DHT22;566;48.414;9.118;2023-04-01T02:12:01;6.80;97.90
1155;DHT22;566;48.414;9.118;2023-04-01T02:14:39;6.90;97.80
1155;DHT22;566;48.414;9.118;2023-04-01T02:17:22;6.80;98.00
1155;DHT22;566;48.414;9.118;2023-04-01T02:19:56;6.70;97.70
1155;DHT22;566;48.414;9.118;2023-04-01T02:22:33;6.60;97.30
1155;DHT22;566;48.414;9.118;2023-04-01T02:25:07;6.50;97.40
1155;DHT22;566;48.414;9.118;2023-04-01T02:27:33;6.50;97.00
1155;DHT22;566;48.414;9.118;2023-04-01T02:29:59;6.50;97.20
1155;DHT22;566;48.414;9.118;2023-04-01T02:32:25;6.50;96.20
1155;DHT22;566;48.414;9.118;2023-04-01T02:34:52;6.50;96.60
1155;DHT22;566;48.414;9.118;2023-04-01T02:37:18;6.40;96.10
1155;DHT22;566;48.414;9.118;2023-04-01T02:39:43;6.30;95.10
1155;DHT22;566;48.414;9.118;2023-04-01T02:42:09;6.20;95.90
1155;DHT22;566;48.414;9.118;2023-04-01T02:44:35;6.10;94.80
1155;DHT22;566;48.414;9.118;2023-04-01T02:47:02;6.00;94.50
1155;DHT22;566;48.414;9.118;2023-04-01T02:49:27;5.80;92.90
1155;DHT22;566;48.414;9.118;2023-04-01T02:51:53;5.70;93.60
1155;DHT22;566;48.414;9.118;2023-04-01T02:54:19;5.60;91.60
1155;DHT22;566;48.414;9.118;2023-04-01T02:56:45;5.50;91.10
1155;DHT22;566;48.414;9.118;2023-04-01T02:59:11;5.50;92.40
1155;DHT22;566;48.414;9.118;2023-04-01T03:01:37;5.40;91.60
1155;DHT22;566;48.414;9.118;2023-04-01T03:04:02;5.40;90.80
1155;DHT22;566;48.414;9.118;2023-04-01T03:06:28;5.30;92.80
1155;DHT22;566;48.414;9.118;2023-04-01T03:08:54;5.30;91.10
1155;DHT22;566;48.414;9.118;2023-04-01T03:11:20;5.20;89.40
1155;DHT22;566;48.414;9.118;2023-04-01T03:13:46;5.10;89.70
1155;DHT22;566;48.414;9.118;2023-04-01T03:16:12;5.10;87.50
1155;DHT22;566;48.414;9.118;2023-04-01T03:18:37;5.10;86.80
1155;DHT22;566;48.414;9.118;2023-04-01T03:21:17;5.10;87.60
1155;DHT22;566;48.414;9.118;2023-04-01T03:23:43;5.00;85.90
1155;DHT22;566;48.414;9.118;2023-04-01T03:26:08;5.00;84.90
1155;DHT22;566;48.414;9.118;2023-04-01T03:28:34;5.00;85.70
1155;DHT22;566;48.414;9.118;2023-04-01T03:31:00;4.90;85.20
1155;DHT22;566;48.414;9.118;2023-04-01T03:33:26;4.80;84.30
1155;DHT22;566;48.414;9.118;2023-04-01T03:35:51;4.70;84.70
1155;DHT22;566;48.414;9.118;2023-04-01T03:38:17;4.60;84.20
1155;DHT22;566;48.414;9.118;2023-04-01T03:40:44;4.70;86.10
1155;DHT22;566;48.414;9.118;2023-04-01T03:43:10;5.00;89.10
1155;DHT22;566;48.414;9.118;2023-04-01T03:45:36;5.10;89.50
1155;DHT22;566;48.414;9.118;2023-04-01T03:48:02;5.10;89.40
1155;DHT22;566;48.414;9.118;2023-04-01T03:50:27;5.20;88.40
1155;DHT22;566;48.414;9.118;2023-04-01T03:52:53;5.30;89.40
1155;DHT22;566;48.414;9.118;2023-04-01T03:55:18;5.30;90.50
1155;DHT22;566;48.414;9.118;2023-04-01T03:57:44;5.40;90.80
1155;DHT22;566;48.414;9.118;2023-04-01T04:00:10;5.50;92.00
1155;DHT22;566;48.414;9.118;2023-04-01T04:02:36;5.50;92.00
1155;DHT22;566;48.414;9.118;2023-04-01T04:05:01;5.50;92.40
1155;DHT22;566;48.414;9.118;2023-04-01T04:07:27;5.60;93.00
1155;DHT22;566;48.414;9.118;2023-04-01T04:09:53;5.60;92.80
1155;DHT22;566;48.414;9.118;2023-04-01T04:12:18;5.60;94.50
1155;DHT22;566;48.414;9.118;2023-04-01T04:14:44;5.70;94.20
1155;DHT22;566;48.414;9.118;2023-04-01T04:17:11;5.70;94.90
1155;DHT22;566;48.414;9.118;2023-04-01T04:19:41;5.70;94.00
1155;DHT22;566;48.414;9.118;2023-04-01T04:22:07;5.80;95.50
1155;DHT22;566;48.414;9.118;2023-04-01T04:24:36;5.90;96.10
1155;DHT22;566;48.414;9.118;2023-04-01T04:27:03;5.80;95.40
1155;DHT22;566;48.414;9.118;2023-04-01T04:29:29;5.90;95.90
1155;DHT22;566;48.414;9.118;2023-04-01T04:31:55;5.90;95.50
1155;DHT22;566;48.414;9.118;2023-04-01T04:34:20;5.90;95.80
1155;DHT22;566;48.414;9.118;2023-04-01T04:36:48;5.90;96.80
1155;DHT22;566;48.414;9.118;2023-04-01T04:39:14;6.00;96.50
1155;DHT22;566;48.414;9.118;2023-04-01T04:41:39;6.00;96.30
1155;DHT22;566;48.414;9.118;2023-04-01T04:44:05;6.00;96.80
1155;DHT22;566;48.414;9.118;2023-04-01T04:46:31;5.90;96.30
1155;DHT22;566;48.414;9.118;2023-04-01T04:48:56;6.00;96.80
1155;DHT22;566;48.414;9.118;2023-04-01T04:51:23;5.90;96.80
1155;DHT22;566;48.414;9.118;2023-04-01T04:53:48;5.90;96.80
1155;DHT22;566;48.414;9.118;2023-04-01T04:56:18;5.90;97.50
1155;DHT22;566;48.414;9.118;2023-04-01T04:58:45;6.00;98.00
1155;DHT22;566;48.414;9.118;2023-04-01T05:01:14;6.10;98.00
1155;DHT22;566;48.414;9.118;2023-04-01T05:03:40;6.10;98.00
1155;DHT22;566;48.414;9.118;2023-04-01T05:06:07;6.20;98.00
1155;DHT22;566;48.414;9.118;2023-04-01T05:08:33;6.20;98.00
1155;DHT22;566;48.414;9.118;2023-04-01T05:11:00;6.20;98.00
1155;DHT22;566;48.414;9.118;2023-04-01T05:13:27;6.40;98.00
1155;DHT22;566;48.414;9.118;2023-04-01T05:15:52;6.40;98.00
1155;DHT22;566;48.414;9.118;2023-04-01T05:18:18;6.50;98.00
1155;DHT22;566;48.414;9.118;2023-04-01T05:20:51;6.50;98.00
1155;DHT22;566;48.414;9.118;2023-04-01T05:23:18;6.50;98.00
1155;DHT22;566;48.414;9.118;2023-04-01T05:25:46;6.50;98.00
1155;DHT22;566;48.414;9.118;2023-04-01T05:28:12;6.60;98.00
1155;DHT22;566;48.414;9.118;2023-04-01T05:30:43;6.60;98.00
1155;DHT22;566;48.414;9.118;2023-04-01T05:33:09;6.70;98.00
1155;DHT22;566;48.414;9.118;2023-04-01T05:35:35;6.70;98.00
1155;DHT22;566;48.414;9.118;2023-04-01T05:38:01;6.70;98.00
1155;DHT22;566;48.414;9.118;2023-04-01T05:40:28;6.80;98.00
1155;DHT22;566;48.414;9.118;2023-04-01T05:42:54;6.80;98.00
1155;DHT22;566;48.414;9.118;2023-04-01T05:45:19;7.00;97.50
1155;DHT22;566;48.414;9.118;2023-04-01T05:47:45;7.10;97.30
1155;DHT22;566;48.414;9.118;2023-04-01T05:50:10;7.10;97.40
1155;DHT22;566;48.414;9.118;2023-04-01T05:52:37;7.10;97.40
1155;DHT22;566;48.414;9.118;2023-04-01T05:55:03;7.00;97.60
1155;DHT22;566;48.414;9.118;2023-04-01T05:57:29;7.00;97.80
1155;DHT22;566;48.414;9.118;2023-04-01T05:59:55;7.00;98.00
1155;DHT22;566;48.414;9.118;2023-04-01T06:02:20;7.10;97.80
1155;DHT22;566;48.414;9.118;2023-04-01T06:04:46;7.20;97.50
1155;DHT22;566;48.414;9.118;2023-04-01T06:07:14;7.30;97.60
1155;DHT22;566;48.414;9.118;2023-04-01T06:09:40;7.30;97.60
1155;DHT22;566;48.414;9.118;2023-04-01T06:20:59;7.40;97.30
1155;DHT22;566;48.414;9.118;2023-04-01T06:23:44;7.40;97.10
1155;DHT22;566;48.414;9.118;2023-04-01T06:26:31;7.40;97.00
1155;DHT22;566;48.414;9.118;2023-04-01T06:37:41;7.50;96.30
1155;DHT22;566;48.414;9.118;2023-04-01T06:42:48;7.60;96.30
1155;DHT22;566;48.414;9.118;2023-04-01T06:45:31;7.70;96.10
1155;DHT22;566;48.414;9.118;2023-04-01T06:48:21;7.70;96.30
1155;DHT22;566;48.414;9.118;2023-04-01T06:51:18;7.80;96.10
1155;DHT22;566;48.414;9.118;2023-04-01T06:56:28;7.80;96.00
1155;DHT22;566;48.414;9.118;2023-04-01T06:59:17;7.90;95.50
1155;DHT22;566;48.414;9.118;2023-04-01T07:01:49;7.90;95.70
1155;DHT22;566;48.414;9.118;2023-04-01T07:04:31;7.90;95.60
1155;DHT22;566;48.414;9.118;2023-04-01T07:07:05;8.00;95.60
1155;DHT22;566;48.414;9.118;2023-04-01T07:09:41;8.00;95.70
1155;DHT22;566;48.414;9.118;2023-04-01T07:14:52;8.10;95.90
1155;DHT22;566;48.414;9.118;2023-04-01T07:17:25;8.10;95.50
1155;DHT22;566;48.414;9.118;2023-04-01T07:22:29;8.10;95.70
1155;DHT22;566;48.414;9.118;2023-04-01T07:24:59;8.10;95.70
1155;DHT22;566;48.414;9.118;2023-04-01T07:27:26;8.10;95.20
1155;DHT22;566;48.414;9.118;2023-04-01T07:29:55;8.20;95.30
1155;DHT22;566;48.414;9.118;2023-04-01T07:32:39;8.10;95.30
1155;DHT22;566;48.414;9.118;2023-04-01T07:38:45;8.20;94.90
1155;DHT22;566;48.414;9.118;2023-04-01T07:43:43;8.20;93.90
1155;DHT22;566;48.414;9.118;2023-04-01T07:48:58;8.30;94.30
1155;DHT22;566;48.414;9.118;2023-04-01T07:54:18;8.30;94.50
1155;DHT22;566;48.414;9.118;2023-04-01T07:56:57;8.40;94.30
1155;DHT22;566;48.414;9.118;2023-04-01T08:00:02;8.50;93.50
1155;DHT22;566;48.414;9.118;2023-04-01T08:05:18;8.20;94.40
1155;DHT22;566;48.414;9.118;2023-04-01T08:10:47;8.10;94.20
1155;DHT22;566;48.414;9.118;2023-04-01T08:21:47;8.20;94.00
1155;DHT22;566;48.414;9.118;2023-04-01T08:26:59;8.20;94.40
1155;DHT22;566;48.414;9.118;2023-04-01T08:29:48;8.20;94.10
1155;DHT22;566;48.414;9.118;2023-04-01T08:32:20;8.20;94.40
1155;DHT22;566;48.414;9.118;2023-04-01T08:34:50;8.30;94.50
1155;DHT22;566;48.414;9.118;2023-04-01T08:37:22;8.50;94.00
1155;DHT22;566;48.414;9.118;2023-04-01T08:40:32;8.50;93.40
1155;DHT22;566;48.414;9.118;2023-04-01T08:45:44;8.50;93.50
1155;DHT22;566;48.414;9.118;2023-04-01T08:59:40;8.30;93.70
1155;DHT22;566;48.414;9.118;2023-04-01T09:28:08;8.60;94.90
1155;DHT22;566;48.414;9.118;2023-04-01T09:56:03;8.40;96.00
1155;DHT22;566;48.414;9.118;2023-04-01T10:13:11;8.60;96.90
1155;DHT22;566;48.414;9.118;2023-04-01T10:18:39;8.20;97.40
1155;DHT22;566;48.414;9.118;2023-04-01T10:30:13;7.60;98.00
1155;DHT22;566;48.414;9.118;2023-04-01T10:32:45;7.60;97.60
1155;DHT22;566;48.414;9.118;2023-04-01T10:49:26;7.90;97.70
1155;DHT22;566;48.414;9.118;2023-04-01T10:52:11;8.10;97.00
1155;DHT22;566;48.414;9.118;2023-04-01T10:54:49;8.30;97.10
1155;DHT22;566;48.414;9.118;2023-04-01T11:03:09;8.30;96.80
1155;DHT22;566;48.414;9.118;2023-04-01T11:30:28;8.60;97.10
1155;DHT22;566;48.414;9.118;2023-04-01T11:35:37;8.50;97.40
1155;DHT22;566;48.414;9.118;2023-04-01T11:41:19;8.00;98.00
1155;DHT22;566;48.414;9.118;2023-04-01T11:54:57;7.90;97.40
1155;DHT22;566;48.414;9.118;2023-04-01T12:03:12;8.40;97.50
1155;DHT22;566;48.414;9.118;2023-04-01T12:11:35;8.30;97.80
1155;DHT22;566;48.414;9.118;2023-04-01T12:14:35;8.50;97.10
1155;DHT22;566;48.414;9.118;2023-04-01T12:19:56;8.30;96.90
1155;DHT22;566;48.414;9.118;2023-04-01T12:31:19;8.00;94.30
1155;DHT22;566;48.414;9.118;2023-04-01T12:36:49;8.00;93.50
1155;DHT22;566;48.414;9.118;2023-04-01T12:47:51;8.00;96.10
1155;DHT22;566;48.414;9.118;2023-04-01T12:56:23;8.20;94.50
1155;DHT22;566;48.414;9.118;2023-04-01T13:01:40;8.40;98.00
1155;DHT22;566;48.414;9.118;2023-04-01T13:21:54;9.50;96.70
1155;DHT22;566;48.414;9.118;2023-04-01T13:24:54;9.50;95.10
1155;DHT22;566;48.414;9.118;2023-04-01T13:27:43;9.30;95.70
1155;DHT22;566;48.414;9.118;2023-04-01T13:30:30;9.30;96.50
1155;DHT22;566;48.414;9.118;2023-04-01T13:35:56;9.20;96.30
1155;DHT22;566;48.414;9.118;2023-04-01T13:38:48;9.00;96.10
1155;DHT22;566;48.414;9.118;2023-04-01T13:44:09;9.20;96.40
1155;DHT22;566;48.414;9.118;2023-04-01T13:49:31;9.20;95.50
1155;DHT22;566;48.414;9.118;2023-04-01T13:52:21;9.00;96.40
1155;DHT22;566;48.414;9.118;2023-04-01T13:55:06;9.10;96.80
1155;DHT22;566;48.414;9.118;2023-04-01T14:11:45;9.30;96.40
1155;DHT22;566;48.414;9.118;2023-04-01T14:17:17;9.40;95.10
1155;DHT22;566;48.414;9.118;2023-04-01T14:25:25;9.30;94.80
1155;DHT22;566;48.414;9.118;2023-04-01T14:31:32;9.50;94.80
1155;DHT22;566;48.414;9.118;2023-04-01T14:33:57;9.40;93.80
1155;DHT22;566;48.414;9.118;2023-04-01T14:45:08;9.30;95.00
1155;DHT22;566;48.414;9.118;2023-04-01T14:50:21;9.40;94.30
1155;DHT22;566;48.414;9.118;2023-04-01T14:53:31;9.40;94.50
1155;DHT22;566;48.414;9.118;2023-04-01T14:56:01;9.30;95.10
1155;DHT22;566;48.414;9.118;2023-04-01T14:58:44;9.30;94.90
1155;DHT22;566;48.414;9.118;2023-04-01T15:10:12;9.30;95.10
1155;DHT22;566;48.414;9.118;2023-04-01T15:13:22;9.40;94.80
1155;DHT22;566;48.414;9.118;2023-04-01T15:16:17;9.30;94.40
1155;DHT22;566;48.414;9.118;2023-04-01T15:19:09;9.20;94.80
1155;DHT22;566;48.414;9.118;2023-04-01T15:22:16;9.10;95.10
1155;DHT22;566;48.414;9.118;2023-04-01T15:25:33;9.10;95.70
1155;DHT22;566;48.414;9.118;2023-04-01T15:28:06;9.20;95.60
1155;DHT22;566;48.414;9.118;2023-04-01T15:30:50;9.20;95.30
1155;DHT22;566;48.414;9.118;2023-04-01T15:33:28;9.10;95.70
1155;DHT22;566;48.414;9.118;2023-04-01T15:39:51;9.10;94.90
1155;DHT22;566;48.414;9.118;2023-04-01T15:45:18;9.00;95.30
1155;DHT22;566;48.414;9.118;2023-04-01T15:48:33;9.10;95.20
1155;DHT22;566;48.414;9.118;2023-04-01T15:51:16;9.10;94.90
1155;DHT22;566;48.414;9.118;2023-04-01T15:53:59;9.10;95.00
1155;DHT22;566;48.414;9.118;2023-04-01T15:59:31;9.00;94.60
1155;DHT22;566;48.414;9.118;2023-04-01T16:02:13;8.90;95.00
1155;DHT22;566;48.414;9.118;2023-04-01T16:05:03;8.90;95.30
1155;DHT22;566;48.414;9.118;2023-04-01T16:13:03;8.90;95.30
1155;DHT22;566;48.414;9.118;2023-04-01T16:21:35;8.90;95.20
1155;DHT22;566;48.414;9.118;2023-04-01T16:26:47;8.80;95.30
1155;DHT22;566;48.414;9.118;2023-04-01T16:40:23;8.90;95.30
1155;DHT22;566;48.414;9.118;2023-04-01T16:42:58;9.00;95.10
1155;DHT22;566;48.414;9.118;2023-04-01T16:49:13;9.00;95.20
1155;DHT22;566;48.414;9.118;2023-04-01T16:57:02;9.00;94.70
1155;DHT22;566;48.414;9.118;2023-04-01T16:59:45;9.00;94.70
1155;DHT22;566;48.414;9.118;2023-04-01T17:02:17;9.00;94.80
1155;DHT22;566;48.414;9.118;2023-04-01T17:05:08;9.00;94.80
1155;DHT22;566;48.414;9.118;2023-04-01T17:10:36;9.00;95.00
1155;DHT22;566;48.414;9.118;2023-04-01T17:18:24;9.00;94.70
1155;DHT22;566;48.414;9.118;2023-04-01T17:21:13;9.00;94.30
1155;DHT22;566;48.414;9.118;2023-04-01T17:24:04;8.90;94.90
1155;DHT22;566;48.414;9.118;2023-04-01T17:26:56;8.90;94.80
1155;DHT22;566;48.414;9.118;2023-04-01T17:38:11;8.80;95.10
1155;DHT22;566;48.414;9.118;2023-04-01T17:40:58;8.70;94.80
1155;DHT22;566;48.414;9.118;2023-04-01T17:51:34;8.60;94.80
1155;DHT22;566;48.414;9.118;2023-04-01T17:54:27;8.60;94.60
1155;DHT22;566;48.414;9.118;2023-04-01T17:59:59;8.50;94.80
1155;DHT22;566;48.414;9.118;2023-04-01T18:02:49;8.50;95.00
1155;DHT22;566;48.414;9.118;2023-04-01T18:05:45;8.50;95.20
1155;DHT22;566;48.414;9.118;2023-04-01T18:08:56;8.40;95.00
1155;DHT22;566;48.414;9.118;2023-04-01T18:17:12;8.30;95.40
1155;DHT22;566;48.414;9.118;2023-04-01T18:20:18;8.30;95.60
1155;DHT22;566;48.414;9.118;2023-04-01T18:22:47;8.20;95.60
1155;DHT22;566;48.414;9.118;2023-04-01T18:33:34;8.10;95.70
1155;DHT22;566;48.414;9.118;2023-04-01T18:38:52;8.10;95.70
1155;DHT22;566;48.414;9.118;2023-04-01T18:47:03;8.00;96.00
1155;DHT22;566;48.414;9.118;2023-04-01T18:52:31;8.00;96.30
1155;DHT22;566;48.414;9.118;2023-04-01T18:57:52;7.90;96.70
1155;DHT22;566;48.414;9.118;2023-04-01T19:00:26;7.90;96.90
1155;DHT22;566;48.414;9.118;2023-04-01T19:05:44;7.80;97.20
1155;DHT22;566;48.414;9.118;2023-04-01T19:40:47;6.80;97.20
1155;DHT22;566;48.414;9.118;2023-04-01T19:49:00;6.80;97.60
1155;DHT22;566;48.414;9.118;2023-04-01T19:51:50;7.00;97.70
1155;DHT22;566;48.414;9.118;2023-04-01T20:05:03;7.10;98.00
1155;DHT22;566;48.414;9.118;2023-04-01T20:07:54;7.10;98.00
1155;DHT22;566;48.414;9.118;2023-04-01T20:10:30;7.10;98.00
1155;DHT22;566;48.414;9.118;2023-04-01T20:13:41;7.20;98.00
1155;DHT22;566;48.414;9.118;2023-04-01T20:16:03;7.30;98.00
1155;DHT22;566;48.414;9.118;2023-04-01T20:23:57;7.40;98.00
1155;DHT22;566;48.414;9.118;2023-04-01T20:26:37;7.50;97.80
1155;DHT22;566;48.414;9.118;2023-04-01T20:32:18;7.50;97.70
1155;DHT22;566;48.414;9.118;2023-04-01T20:34:55;7.50;97.60
1155;DHT22;566;48.414;9.118;2023-04-01T20:37:36;7.50;97.50
1155;DHT22;566;48.414;9.118;2023-04-01T20:43:42;7.40;97.40
1155;DHT22;566;48.414;9.118;2023-04-01T20:49:23;7.40;97.20
1155;DHT22;566;48.414;9.118;2023-04-01T20:52:17;7.40;97.20
1155;DHT22;566;48.414;9.118;2023-04-01T21:05:54;7.60;96.30
1155;DHT22;566;48.414;9.118;2023-04-01T21:14:33;7.60;96.30
1155;DHT22;566;48.414;9.118;2023-04-01T21:23:13;7.80;95.90
1155;DHT22;566;48.414;9.118;2023-04-01T21:47:36;7.20;97.50
1155;DHT22;566;48.414;9.118;2023-04-01T22:07:29;6.20;95.50
1155;DHT22;566;48.414;9.118;2023-04-01T22:10:14;6.10;95.10
1155;DHT22;566;48.414;9.118;2023-04-01T22:12:52;6.10;94.80
1155;DHT22;566;48.414;9.118;2023-04-01T22:21:15;6.10;94.00
1155;DHT22;566;48.414;9.118;2023-04-01T22:24:17;6.00;93.60
1155;DHT22;566;48.414;9.118;2023-04-01T22:30:41;6.10;94.10
1155;DHT22;566;48.414;9.118;2023-04-01T22:32:46;6.10;94.00
1155;DHT22;566;48.414;9.118;2023-04-01T22:40:59;6.20;94.60
1155;DHT22;566;48.414;9.118;2023-04-01T22:46:03;6.20;93.70
1155;DHT22;566;48.414;9.118;2023-04-01T22:48:43;6.20;94.00
1155;DHT22;566;48.414;9.118;2023-04-01T22:51:20;6.30;95.70
1155;DHT22;566;48.414;9.118;2023-04-01T22:54:10;6.40;97.00
1155;DHT22;566;48.414;9.118;2023-04-01T22:56:41;6.50;97.30
1155;DHT22;566;48.414;9.118;2023-04-01T22:59:15;6.50;97.10
1155;DHT22;566;48.414;9.118;2023-04-01T23:01:49;6.50;97.30
1155;DHT22;566;48.414;9.118;2023-04-01T23:04:17;6.40;97.40
1155;DHT22;566;48.414;9.118;2023-04-01T23:06:54;6.40;97.30
1155;DHT22;566;48.414;9.118;2023-04-01T23:09:27;6.40;97.20
1155;DHT22;566;48.414;9.118;2023-04-01T23:12:08;6.40;97.00
1155;DHT22;566;48.414;9.118;2023-04-01T23:14:56;6.30;96.90
1155;DHT22;566;48.414;9.118;2023-04-01T23:23:06;6.40;98.00
1155;DHT22;566;48.414;9.118;2023-04-01T23:33:22;6.60;98.00
1155;DHT22;566;48.414;9.118;2023-04-01T23:38:16;6.70;98.00
1155;DHT22;566;48.414;9.118;2023-04-01T23:40:42;6.70;98.00
1155;DHT22;566;48.414;9.118;2023-04-01T23:43:33;6.70;98.00
1155;DHT22;566;48.414;9.118;2023-04-01T23:46:02;6.60;98.00
1155;DHT22;566;48.414;9.118;2023-04-01T23:48:34;6.50;98.00
1155;DHT22;566;48.414;9.118;2023-04-01T23:51:01;6.50;98.00
1155;DHT22;566;48.414;9.118;2023-04-01T23:53:33;6.40;98.00
1155;DHT22;566;48.414;9.118;2023-04-01T23:56:02;6.30;97.40
1155;DHT22;566;48.414;9.118;2023-04-01T23:58:42;6.40;97.70
